Romney, Indiana
Current Conditions -  °F | °C
As of 7:54 AM on Sunday 21 Dec 2014 (Local Time) from KLAF Reporting Station
Overcast Overcast  
Wind Chill: 21°   Ceiling: 3400
Heat Index: 26°   Visibility: 7mi
Dew Point: 24°   Wind: 5mph
Humidity: 92%   Direction: 170°S
Pressure: 30.28"   Gusts: NA
Location:  40.25°N, 86.9°W
Report Text: KLAF 211254Z 17004KT 7SM OVC034 M03/M04 A3028 RMK AO2 SLP261 T10331044
Loading
Personal Weather Stations






























Interactive Weather Map New forecast layout! Learn more

10-Day Weather Forecast

Advertisements
Track Severe Weather on mobile